sensor_id;sensor_type;location;lat;lon;timestamp;pressure;altitude;pressure_sealevel;temperature;humidity
74552;BME280;63025;55.472;38.432;2024-03-23T00:56:05;99407.81;;;1.31;100.00
74552;BME280;63025;55.472;38.432;2024-03-23T00:58:31;99408.78;;;1.30;100.00
74552;BME280;63025;55.472;38.432;2024-03-23T01:00:57;99404.50;;;1.29;100.00
74552;BME280;63025;55.472;38.432;2024-03-23T01:03:23;99398.72;;;1.34;100.00
74552;BME280;63025;55.472;38.432;2024-03-23T01:05:49;99390.56;;;1.35;100.00
74552;BME280;63025;55.472;38.432;2024-03-23T01:08:14;99382.47;;;1.37;100.00
74552;BME280;63025;55.472;38.432;2024-03-23T01:10:40;99384.97;;;1.38;100.00
74552;BME280;63025;55.472;38.432;2024-03-23T01:13:06;99371.72;;;1.38;100.00
74552;BME280;63025;55.472;38.432;2024-03-23T01:15:32;99378.50;;;1.41;100.00
74552;BME280;63025;55.472;38.432;2024-03-23T01:17:58;99370.41;;;1.42;100.00
74552;BME280;63025;55.472;38.432;2024-03-23T01:20:24;99372.56;;;1.39;100.00
74552;BME280;63025;55.472;38.432;2024-03-23T01:22:49;99360.28;;;1.46;100.00
74552;BME280;63025;55.472;38.432;2024-03-23T01:25:15;99360.94;;;1.48;100.00
74552;BME280;63025;55.472;38.432;2024-03-23T01:27:41;99356.81;;;1.54;100.00
74552;BME280;63025;55.472;38.432;2024-03-23T01:30:07;99352.97;;;1.56;100.00
74552;BME280;63025;55.472;38.432;2024-03-23T01:32:33;99350.00;;;1.59;100.00
74552;BME280;63025;55.472;38.432;2024-03-23T01:34:59;99345.38;;;1.61;100.00
74552;BME280;63025;55.472;38.432;2024-03-23T01:37:24;99347.38;;;1.59;100.00
74552;BME280;63025;55.472;38.432;2024-03-23T01:39:50;99343.38;;;1.63;100.00
74552;BME280;63025;55.472;38.432;2024-03-23T01:42:16;99337.94;;;1.65;100.00
74552;BME280;63025;55.472;38.432;2024-03-23T01:44:42;99328.78;;;1.67;100.00
74552;BME280;63025;55.472;38.432;2024-03-23T01:47:08;99334.59;;;1.71;100.00
74552;BME280;63025;55.472;38.432;2024-03-23T01:49:35;99334.44;;;1.72;100.00
74552;BME280;63025;55.472;38.432;2024-03-23T01:52:02;99331.59;;;1.74;100.00
74552;BME280;63025;55.472;38.432;2024-03-23T01:54:29;99325.16;;;1.76;100.00
74552;BME280;63025;55.472;38.432;2024-03-23T01:56:55;99327.97;;;1.75;100.00
74552;BME280;63025;55.472;38.432;2024-03-23T01:59:21;99315.34;;;1.85;100.00
74552;BME280;63025;55.472;38.432;2024-03-23T02:01:47;99310.69;;;1.87;100.00
74552;BME280;63025;55.472;38.432;2024-03-23T02:04:14;99302.09;;;1.85;100.00
74552;BME280;63025;55.472;38.432;2024-03-23T02:06:39;99296.28;;;1.90;100.00
74552;BME280;63025;55.472;38.432;2024-03-23T02:09:05;99296.09;;;1.91;100.00
74552;BME280;63025;55.472;38.432;2024-03-23T02:11:31;99291.78;;;1.90;100.00
74552;BME280;63025;55.472;38.432;2024-03-23T02:13:57;99289.63;;;1.94;100.00
74552;BME280;63025;55.472;38.432;2024-03-23T02:16:23;99288.09;;;1.99;100.00
74552;BME280;63025;55.472;38.432;2024-03-23T02:18:49;99291.75;;;1.98;100.00
74552;BME280;63025;55.472;38.432;2024-03-23T02:21:15;99288.44;;;2.04;100.00
74552;BME280;63025;55.472;38.432;2024-03-23T02:23:41;99283.63;;;2.00;100.00
74552;BME280;63025;55.472;38.432;2024-03-23T02:26:07;99276.84;;;2.05;100.00
74552;BME280;63025;55.472;38.432;2024-03-23T02:28:33;99268.06;;;2.05;100.00
74552;BME280;63025;55.472;38.432;2024-03-23T02:30:58;99258.94;;;2.07;100.00
74552;BME280;63025;55.472;38.432;2024-03-23T02:33:26;99264.91;;;2.01;100.00
74552;BME280;63025;55.472;38.432;2024-03-23T02:35:55;99257.78;;;2.02;100.00
74552;BME280;63025;55.472;38.432;2024-03-23T02:38:21;99259.41;;;2.11;100.00
74552;BME280;63025;55.472;38.432;2024-03-23T02:40:47;99247.31;;;2.08;100.00
74552;BME280;63025;55.472;38.432;2024-03-23T02:43:13;99240.56;;;2.06;100.00
74552;BME280;63025;55.472;38.432;2024-03-23T02:45:39;99253.97;;;2.04;100.00
74552;BME280;63025;55.472;38.432;2024-03-23T02:48:05;99251.00;;;2.07;100.00
74552;BME280;63025;55.472;38.432;2024-03-23T02:50:31;99237.75;;;2.07;100.00
74552;BME280;63025;55.472;38.432;2024-03-23T02:52:56;99242.88;;;2.01;100.00
74552;BME280;63025;55.472;38.432;2024-03-23T02:55:22;99234.06;;;2.08;100.00
74552;BME280;63025;55.472;38.432;2024-03-23T02:57:48;99235.44;;;2.04;100.00
74552;BME280;63025;55.472;38.432;2024-03-23T03:00:14;99225.00;;;2.03;100.00
74552;BME280;63025;55.472;38.432;2024-03-23T03:02:40;99226.81;;;2.02;100.00
74552;BME280;63025;55.472;38.432;2024-03-23T03:05:06;99223.50;;;2.00;100.00
74552;BME280;63025;55.472;38.432;2024-03-23T03:07:32;99220.88;;;2.00;100.00
74552;BME280;63025;55.472;38.432;2024-03-23T03:09:58;99211.75;;;2.03;100.00
74552;BME280;63025;55.472;38.432;2024-03-23T03:12:24;99209.59;;;1.98;100.00
74552;BME280;63025;55.472;38.432;2024-03-23T03:14:50;99209.94;;;2.03;100.00
74552;BME280;63025;55.472;38.432;2024-03-23T03:17:15;99194.19;;;2.02;100.00
74552;BME280;63025;55.472;38.432;2024-03-23T03:19:41;99195.34;;;2.07;100.00
74552;BME280;63025;55.472;38.432;2024-03-23T03:22:07;99194.31;;;2.08;100.00
74552;BME280;63025;55.472;38.432;2024-03-23T03:24:34;99184.53;;;2.09;100.00
74552;BME280;63025;55.472;38.432;2024-03-23T03:27:00;99188.66;;;2.11;100.00
74552;BME280;63025;55.472;38.432;2024-03-23T03:29:26;99186.00;;;2.11;100.00
74552;BME280;63025;55.472;38.432;2024-03-23T03:31:52;99190.66;;;2.09;100.00
74552;BME280;63025;55.472;38.432;2024-03-23T03:34:18;99181.06;;;2.08;100.00
74552;BME280;63025;55.472;38.432;2024-03-23T03:36:43;99169.63;;;2.08;100.00
74552;BME280;63025;55.472;38.432;2024-03-23T03:39:09;99165.63;;;2.12;100.00
74552;BME280;63025;55.472;38.432;2024-03-23T03:41:35;99161.34;;;2.11;100.00
74552;BME280;63025;55.472;38.432;2024-03-23T03:44:01;99156.50;;;2.14;100.00
74552;BME280;63025;55.472;38.432;2024-03-23T03:46:28;99138.84;;;2.07;100.00
74552;BME280;63025;55.472;38.432;2024-03-23T03:48:54;99151.22;;;2.14;100.00
74552;BME280;63025;55.472;38.432;2024-03-23T03:51:20;99144.19;;;2.21;100.00
74552;BME280;63025;55.472;38.432;2024-03-23T03:53:46;99139.38;;;2.25;100.00
74552;BME280;63025;55.472;38.432;2024-03-23T03:56:12;99141.84;;;2.27;100.00
74552;BME280;63025;55.472;38.432;2024-03-23T03:58:38;99133.50;;;2.30;100.00
74552;BME280;63025;55.472;38.432;2024-03-23T04:01:05;99132.81;;;2.36;100.00
74552;BME280;63025;55.472;38.432;2024-03-23T04:03:31;99128.16;;;2.38;100.00
74552;BME280;63025;55.472;38.432;2024-03-23T04:05:57;99125.97;;;2.41;100.00
74552;BME280;63025;55.472;38.432;2024-03-23T04:08:24;99128.59;;;2.41;100.00
74552;BME280;63025;55.472;38.432;2024-03-23T04:10:49;99124.97;;;2.42;100.00
74552;BME280;63025;55.472;38.432;2024-03-23T04:13:15;99113.81;;;2.47;100.00
74552;BME280;63025;55.472;38.432;2024-03-23T04:15:42;99103.03;;;2.48;100.00
74552;BME280;63025;55.472;38.432;2024-03-23T04:18:08;99108.97;;;2.50;100.00
74552;BME280;63025;55.472;38.432;2024-03-23T04:20:34;99110.91;;;2.56;100.00
74552;BME280;63025;55.472;38.432;2024-03-23T04:23:00;99098.31;;;2.58;100.00
74552;BME280;63025;55.472;38.432;2024-03-23T04:25:26;99094.81;;;2.58;100.00
74552;BME280;63025;55.472;38.432;2024-03-23T04:27:52;99098.38;;;2.65;100.00
74552;BME280;63025;55.472;38.432;2024-03-23T04:30:18;99094.38;;;2.69;100.00
74552;BME280;63025;55.472;38.432;2024-03-23T04:32:45;99094.09;;;2.79;100.00
74552;BME280;63025;55.472;38.432;2024-03-23T04:35:10;99098.94;;;2.75;100.00
74552;BME280;63025;55.472;38.432;2024-03-23T04:37:39;99087.78;;;2.80;100.00
74552;BME280;63025;55.472;38.432;2024-03-23T04:40:09;99088.22;;;2.83;100.00
74552;BME280;63025;55.472;38.432;2024-03-23T04:42:34;99085.88;;;2.88;100.00
74552;BME280;63025;55.472;38.432;2024-03-23T04:45:00;99079.81;;;2.94;100.00
74552;BME280;63025;55.472;38.432;2024-03-23T04:47:29;99070.59;;;2.90;100.00
74552;BME280;63025;55.472;38.432;2024-03-23T04:49:55;99080.09;;;3.00;100.00
74552;BME280;63025;55.472;38.432;2024-03-23T04:52:21;99071.91;;;3.01;100.00
74552;BME280;63025;55.472;38.432;2024-03-23T04:54:47;99070.00;;;3.10;100.00
74552;BME280;63025;55.472;38.432;2024-03-23T04:57:13;99069.53;;;3.06;100.00
74552;BME280;63025;55.472;38.432;2024-03-23T04:59:46;99070.19;;;3.08;100.00
74552;BME280;63025;55.472;38.432;2024-03-23T05:02:13;99062.03;;;3.10;100.00
74552;BME280;63025;55.472;38.432;2024-03-23T05:04:41;99058.75;;;3.08;100.00
74552;BME280;63025;55.472;38.432;2024-03-23T05:07:07;99059.47;;;3.16;100.00
74552;BME280;63025;55.472;38.432;2024-03-23T05:09:33;99047.00;;;3.17;100.00
74552;BME280;63025;55.472;38.432;2024-03-23T05:11:59;99049.13;;;3.21;100.00
74552;BME280;63025;55.472;38.432;2024-03-23T05:14:28;99043.69;;;3.29;100.00
74552;BME280;63025;55.472;38.432;2024-03-23T05:16:54;99042.50;;;3.32;100.00
74552;BME280;63025;55.472;38.432;2024-03-23T05:19:21;99039.53;;;3.42;100.00
74552;BME280;63025;55.472;38.432;2024-03-23T05:21:48;99038.06;;;3.39;100.00
74552;BME280;63025;55.472;38.432;2024-03-23T05:24:14;99038.06;;;3.39;100.00
74552;BME280;63025;55.472;38.432;2024-03-23T05:26:39;99035.84;;;3.43;100.00
74552;BME280;63025;55.472;38.432;2024-03-23T05:29:05;99038.59;;;3.49;100.00
74552;BME280;63025;55.472;38.432;2024-03-23T05:31:32;99043.91;;;3.49;100.00
74552;BME280;63025;55.472;38.432;2024-03-23T05:33:58;99033.41;;;3.62;100.00
74552;BME280;63025;55.472;38.432;2024-03-23T05:36:24;99019.50;;;3.60;100.00
74552;BME280;63025;55.472;38.432;2024-03-23T05:38:50;99015.06;;;3.67;100.00
74552;BME280;63025;55.472;38.432;2024-03-23T05:41:16;99016.25;;;3.65;100.00
74552;BME280;63025;55.472;38.432;2024-03-23T05:43:42;99013.78;;;3.63;100.00
74552;BME280;63025;55.472;38.432;2024-03-23T05:46:07;99015.94;;;3.75;100.00
74552;BME280;63025;55.472;38.432;2024-03-23T05:48:34;99012.25;;;3.76;100.00
74552;BME280;63025;55.472;38.432;2024-03-23T05:51:00;99004.88;;;3.71;100.00
74552;BME280;63025;55.472;38.432;2024-03-23T05:53:26;99001.13;;;3.65;100.00
74552;BME280;63025;55.472;38.432;2024-03-23T05:56:00;98994.06;;;3.73;100.00
74552;BME280;63025;55.472;38.432;2024-03-23T05:58:29;98995.94;;;3.79;100.00
74552;BME280;63025;55.472;38.432;2024-03-23T06:01:01;99001.06;;;3.80;100.00
74552;BME280;63025;55.472;38.432;2024-03-23T06:03:28;98996.38;;;3.82;100.00
74552;BME280;63025;55.472;38.432;2024-03-23T06:05:55;98997.69;;;3.93;100.00
74552;BME280;63025;55.472;38.432;2024-03-23T06:08:21;98990.81;;;4.05;100.00
74552;BME280;63025;55.472;38.432;2024-03-23T06:10:48;98994.41;;;3.91;100.00
74552;BME280;63025;55.472;38.432;2024-03-23T06:13:14;98989.72;;;3.93;100.00
74552;BME280;63025;55.472;38.432;2024-03-23T06:15:40;98978.09;;;3.94;100.00
74552;BME280;63025;55.472;38.432;2024-03-23T06:18:05;98977.03;;;3.95;100.00
74552;BME280;63025;55.472;38.432;2024-03-23T06:20:33;98978.50;;;3.97;100.00
74552;BME280;63025;55.472;38.432;2024-03-23T06:23:00;98977.34;;;4.06;100.00
74552;BME280;63025;55.472;38.432;2024-03-23T06:25:27;98978.41;;;4.12;100.00
74552;BME280;63025;55.472;38.432;2024-03-23T06:27:52;98968.47;;;3.93;100.00
74552;BME280;63025;55.472;38.432;2024-03-23T06:30:18;98967.00;;;3.90;100.00
74552;BME280;63025;55.472;38.432;2024-03-23T06:32:44;98973.53;;;3.88;100.00
74552;BME280;63025;55.472;38.432;2024-03-23T06:35:10;98983.16;;;3.89;100.00
74552;BME280;63025;55.472;38.432;2024-03-23T06:37:36;98971.50;;;3.90;100.00
74552;BME280;63025;55.472;38.432;2024-03-23T06:40:02;98969.03;;;3.88;100.00
74552;BME280;63025;55.472;38.432;2024-03-23T06:42:30;98956.72;;;3.81;100.00
74552;BME280;63025;55.472;38.432;2024-03-23T06:44:56;98952.22;;;3.81;100.00
74552;BME280;63025;55.472;38.432;2024-03-23T06:47:21;98954.91;;;3.88;100.00
74552;BME280;63025;55.472;38.432;2024-03-23T06:49:47;98956.75;;;3.87;100.00
74552;BME280;63025;55.472;38.432;2024-03-23T06:52:13;98965.00;;;3.92;100.00
74552;BME280;63025;55.472;38.432;2024-03-23T06:54:39;98947.91;;;4.08;100.00
74552;BME280;63025;55.472;38.432;2024-03-23T06:57:05;98958.78;;;4.13;100.00
74552;BME280;63025;55.472;38.432;2024-03-23T06:59:31;98942.56;;;4.01;100.00
74552;BME280;63025;55.472;38.432;2024-03-23T07:01:56;98956.84;;;4.00;100.00
74552;BME280;63025;55.472;38.432;2024-03-23T07:04:22;98943.31;;;3.95;100.00
74552;BME280;63025;55.472;38.432;2024-03-23T07:06:48;98949.06;;;3.99;100.00
74552;BME280;63025;55.472;38.432;2024-03-23T07:09:14;98938.28;;;4.07;100.00
74552;BME280;63025;55.472;38.432;2024-03-23T07:11:40;98936.16;;;3.96;100.00
74552;BME280;63025;55.472;38.432;2024-03-23T07:14:05;98930.66;;;3.97;100.00
74552;BME280;63025;55.472;38.432;2024-03-23T07:16:31;98929.53;;;4.13;100.00
74552;BME280;63025;55.472;38.432;2024-03-23T07:18:57;98922.59;;;4.19;100.00
74552;BME280;63025;55.472;38.432;2024-03-23T07:21:24;98924.91;;;4.28;100.00
74552;BME280;63025;55.472;38.432;2024-03-23T07:23:50;98920.84;;;4.32;100.00
74552;BME280;63025;55.472;38.432;2024-03-23T07:26:15;98917.38;;;4.32;100.00
74552;BME280;63025;55.472;38.432;2024-03-23T07:28:43;98920.22;;;4.30;100.00
74552;BME280;63025;55.472;38.432;2024-03-23T07:31:11;98919.56;;;4.22;100.00
74552;BME280;63025;55.472;38.432;2024-03-23T07:33:42;98919.78;;;4.27;100.00
74552;BME280;63025;55.472;38.432;2024-03-23T07:36:08;98908.31;;;4.26;100.00
74552;BME280;63025;55.472;38.432;2024-03-23T07:38:34;98915.69;;;4.24;100.00
74552;BME280;63025;55.472;38.432;2024-03-23T07:43:29;98912.78;;;4.19;100.00
74552;BME280;63025;55.472;38.432;2024-03-23T07:45:55;98911.94;;;4.12;100.00
74552;BME280;63025;55.472;38.432;2024-03-23T07:48:21;98905.06;;;4.24;100.00
74552;BME280;63025;55.472;38.432;2024-03-23T07:53:31;98903.81;;;4.20;100.00
74552;BME280;63025;55.472;38.432;2024-03-23T07:56:08;98893.19;;;4.27;100.00
74552;BME280;63025;55.472;38.432;2024-03-23T07:58:34;98884.16;;;4.21;100.00
74552;BME280;63025;55.472;38.432;2024-03-23T08:01:25;98893.00;;;4.28;100.00
74552;BME280;63025;55.472;38.432;2024-03-23T08:03:50;98886.19;;;4.13;100.00
74552;BME280;63025;55.472;38.432;2024-03-23T08:06:17;98887.03;;;4.20;100.00
74552;BME280;63025;55.472;38.432;2024-03-23T08:08:47;98880.13;;;4.25;100.00
74552;BME280;63025;55.472;38.432;2024-03-23T08:11:13;98878.47;;;4.24;100.00
74552;BME280;63025;55.472;38.432;2024-03-23T08:13:41;98883.34;;;4.14;100.00
74552;BME280;63025;55.472;38.432;2024-03-23T08:16:08;98878.94;;;4.34;100.00
74552;BME280;63025;55.472;38.432;2024-03-23T08:18:40;98872.41;;;4.43;100.00
74552;BME280;63025;55.472;38.432;2024-03-23T08:21:06;98878.94;;;4.34;100.00
74552;BME280;63025;55.472;38.432;2024-03-23T08:23:34;98871.16;;;4.39;100.00
74552;BME280;63025;55.472;38.432;2024-03-23T08:26:05;98864.63;;;4.42;100.00
74552;BME280;63025;55.472;38.432;2024-03-23T08:28:32;98866.66;;;4.47;100.00
74552;BME280;63025;55.472;38.432;2024-03-23T08:31:02;98864.63;;;4.35;100.00
74552;BME280;63025;55.472;38.432;2024-03-23T08:33:28;98857.22;;;4.31;100.00
74552;BME280;63025;55.472;38.432;2024-03-23T08:35:58;98854.56;;;4.31;100.00
74552;BME280;63025;55.472;38.432;2024-03-23T08:38:26;98862.47;;;4.18;100.00
74552;BME280;63025;55.472;38.432;2024-03-23T08:41:08;98852.69;;;4.25;100.00
74552;BME280;63025;55.472;38.432;2024-03-23T08:43:39;98849.59;;;4.21;100.00
74552;BME280;63025;55.472;38.432;2024-03-23T08:46:15;98841.19;;;4.18;100.00
74552;BME280;63025;55.472;38.432;2024-03-23T08:48:43;98847.59;;;4.30;100.00
74552;BME280;63025;55.472;38.432;2024-03-23T08:51:10;98835.50;;;4.27;100.00
74552;BME280;63025;55.472;38.432;2024-03-23T08:53:37;98831.88;;;4.41;100.00
74552;BME280;63025;55.472;38.432;2024-03-23T08:56:04;98846.19;;;4.40;100.00
74552;BME280;63025;55.472;38.432;2024-03-23T08:58:31;98833.13;;;4.46;100.00
74552;BME280;63025;55.472;38.432;2024-03-23T09:01:03;98845.38;;;4.47;100.00
74552;BME280;63025;55.472;38.432;2024-03-23T09:03:30;98844.16;;;4.42;100.00
74552;BME280;63025;55.472;38.432;2024-03-23T09:05:56;98829.78;;;4.30;100.00
74552;BME280;63025;55.472;38.432;2024-03-23T09:08:23;98830.81;;;4.29;100.00
74552;BME280;63025;55.472;38.432;2024-03-23T09:10:49;98835.34;;;4.35;100.00
74552;BME280;63025;55.472;38.432;2024-03-23T09:13:15;98822.69;;;4.51;100.00
74552;BME280;63025;55.472;38.432;2024-03-23T09:15:51;98821.09;;;4.56;100.00
74552;BME280;63025;55.472;38.432;2024-03-23T09:18:22;98822.94;;;4.56;100.00
74552;BME280;63025;55.472;38.432;2024-03-23T09:20:47;98813.94;;;4.63;100.00
74552;BME280;63025;55.472;38.432;2024-03-23T09:23:13;98823.31;;;4.53;100.00
74552;BME280;63025;55.472;38.432;2024-03-23T09:25:39;98817.41;;;4.64;100.00
74552;BME280;63025;55.472;38.432;2024-03-23T09:28:06;98806.38;;;4.67;100.00
74552;BME280;63025;55.472;38.432;2024-03-23T09:30:35;98818.66;;;4.81;100.00
74552;BME280;63025;55.472;38.432;2024-03-23T09:33:02;98816.81;;;4.82;100.00
74552;BME280;63025;55.472;38.432;2024-03-23T09:35:28;98811.72;;;4.87;100.00
74552;BME280;63025;55.472;38.432;2024-03-23T09:37:54;98816.03;;;4.94;100.00
74552;BME280;63025;55.472;38.432;2024-03-23T09:40:20;98820.53;;;4.94;100.00
74552;BME280;63025;55.472;38.432;2024-03-23T09:42:50;98806.81;;;4.90;100.00
74552;BME280;63025;55.472;38.432;2024-03-23T09:45:26;98816.03;;;4.88;100.00
74552;BME280;63025;55.472;38.432;2024-03-23T09:47:52;98810.31;;;4.97;100.00
74552;BME280;63025;55.472;38.432;2024-03-23T09:50:19;98797.16;;;4.89;100.00
74552;BME280;63025;55.472;38.432;2024-03-23T09:52:48;98800.66;;;5.09;100.00
74552;BME280;63025;55.472;38.432;2024-03-23T09:55:15;98799.22;;;5.20;100.00
74552;BME280;63025;55.472;38.432;2024-03-23T09:57:41;98799.03;;;5.15;100.00
74552;BME280;63025;55.472;38.432;2024-03-23T10:00:08;98794.13;;;5.19;100.00
74552;BME280;63025;55.472;38.432;2024-03-23T10:02:35;98793.28;;;5.11;100.00
74552;BME280;63025;55.472;38.432;2024-03-23T10:05:01;98789.63;;;5.19;100.00
74552;BME280;63025;55.472;38.432;2024-03-23T10:07:29;98790.22;;;5.28;100.00
74552;BME280;63025;55.472;38.432;2024-03-23T10:09:56;98790.22;;;5.21;100.00
74552;BME280;63025;55.472;38.432;2024-03-23T10:12:23;98790.63;;;5.25;100.00
74552;BME280;63025;55.472;38.432;2024-03-23T10:14:50;98799.63;;;5.30;100.00
74552;BME280;63025;55.472;38.432;2024-03-23T10:17:21;98788.38;;;5.28;100.00
74552;BME280;63025;55.472;38.432;2024-03-23T10:19:51;98790.63;;;5.25;100.00
74552;BME280;63025;55.472;38.432;2024-03-23T10:22:19;98780.81;;;5.19;100.00
74552;BME280;63025;55.472;38.432;2024-03-23T10:24:46;98788.19;;;5.16;100.00
74552;BME280;63025;55.472;38.432;2024-03-23T10:27:16;98780.63;;;5.07;100.00
74552;BME280;63025;55.472;38.432;2024-03-23T10:29:46;98780.19;;;5.16;100.00
74552;BME280;63025;55.472;38.432;2024-03-23T10:32:17;98777.91;;;5.20;100.00
74552;BME280;63025;55.472;38.432;2024-03-23T10:34:44;98781.81;;;5.24;100.00
74552;BME280;63025;55.472;38.432;2024-03-23T10:37:10;98767.91;;;5.29;100.00
74552;BME280;63025;55.472;38.432;2024-03-23T10:39:40;98759.47;;;5.32;100.00
74552;BME280;63025;55.472;38.432;2024-03-23T10:42:08;98763.16;;;5.44;100.00
74552;BME280;63025;55.472;38.432;2024-03-23T10:44:37;98756.81;;;5.38;100.00
74552;BME280;63025;55.472;38.432;2024-03-23T10:47:04;98754.53;;;5.48;100.00
74552;BME280;63025;55.472;38.432;2024-03-23T10:49:35;98759.03;;;5.54;100.00
74552;BME280;63025;55.472;38.432;2024-03-23T10:52:03;98756.16;;;5.56;100.00
74552;BME280;63025;55.472;38.432;2024-03-23T10:54:30;98749.97;;;5.62;100.00
74552;BME280;63025;55.472;38.432;2024-03-23T10:57:09;98748.53;;;5.66;100.00
74552;BME280;63025;55.472;38.432;2024-03-23T10:59:40;98741.38;;;5.67;100.00
74552;BME280;63025;55.472;38.432;2024-03-23T11:02:06;98728.06;;;5.60;100.00
74552;BME280;63025;55.472;38.432;2024-03-23T11:04:37;98726.00;;;5.62;100.00
74552;BME280;63025;55.472;38.432;2024-03-23T11:09:53;98736.81;;;5.80;100.00
74552;BME280;63025;55.472;38.432;2024-03-23T11:17:26;98728.59;;;5.88;100.00
74552;BME280;63025;55.472;38.432;2024-03-23T11:19:59;98726.53;;;5.84;100.00
74552;BME280;63025;55.472;38.432;2024-03-23T11:22:47;98727.19;;;5.79;100.00
74552;BME280;63025;55.472;38.432;2024-03-23T11:25:25;98730.25;;;5.76;100.00
74552;BME280;63025;55.472;38.432;2024-03-23T11:27:55;98727.19;;;5.79;100.00
74552;BME280;63025;55.472;38.432;2024-03-23T11:30:25;98720.00;;;5.73;100.00
74552;BME280;63025;55.472;38.432;2024-03-23T11:32:56;98729.47;;;5.69;100.00
74552;BME280;63025;55.472;38.432;2024-03-23T11:35:32;98730.06;;;5.71;100.00
74552;BME280;63025;55.472;38.432;2024-03-23T11:40:45;98706.75;;;5.60;100.00
74552;BME280;63025;55.472;38.432;2024-03-23T11:43:14;98711.22;;;5.66;100.00
74552;BME280;63025;55.472;38.432;2024-03-23T11:45:50;98709.19;;;5.68;100.00
74552;BME280;63025;55.472;38.432;2024-03-23T11:48:24;98712.25;;;5.65;100.00
74552;BME280;63025;55.472;38.432;2024-03-23T11:50:54;98714.31;;;5.70;100.00
74552;BME280;63025;55.472;38.432;2024-03-23T11:53:22;98720.81;;;5.74;100.00
74552;BME280;63025;55.472;38.432;2024-03-23T11:55:58;98713.09;;;5.59;100.00
74552;BME280;63025;55.472;38.432;2024-03-23T11:58:26;98712.28;;;5.59;100.00
74552;BME280;63025;55.472;38.432;2024-03-23T12:01:02;98709.41;;;5.60;100.00
74552;BME280;63025;55.472;38.432;2024-03-23T12:03:30;98701.22;;;5.55;100.00
74552;BME280;63025;55.472;38.432;2024-03-23T12:05:59;98708.22;;;5.49;100.00
74552;BME280;63025;55.472;38.432;2024-03-23T12:08:33;98702.28;;;5.47;100.00
74552;BME280;63025;55.472;38.432;2024-03-23T12:11:15;98703.28;;;5.53;100.00
74552;BME280;63025;55.472;38.432;2024-03-23T12:13:45;98705.31;;;5.51;100.00
74552;BME280;63025;55.472;38.432;2024-03-23T12:16:18;98699.59;;;5.54;100.00
74552;BME280;63025;55.472;38.432;2024-03-23T12:18:47;98707.41;;;5.49;100.00
74552;BME280;63025;55.472;38.432;2024-03-23T12:21:13;98707.78;;;5.52;100.00
74552;BME280;63025;55.472;38.432;2024-03-23T12:23:40;98701.63;;;5.52;100.00
74552;BME280;63025;55.472;38.432;2024-03-23T12:26:06;98695.28;;;5.53;100.00
74552;BME280;63025;55.472;38.432;2024-03-23T12:28:33;98694.25;;;5.54;100.00
74552;BME280;63025;55.472;38.432;2024-03-23T12:30:59;98693.44;;;5.60;100.00
74552;BME280;63025;55.472;38.432;2024-03-23T12:33:25;98694.03;;;5.56;100.00
74552;BME280;63025;55.472;38.432;2024-03-23T12:35:51;98691.78;;;5.59;100.00
74552;BME280;63025;55.472;38.432;2024-03-23T12:38:17;98694.66;;;5.58;100.00
74552;BME280;63025;55.472;38.432;2024-03-23T12:40:47;98686.25;;;5.54;100.00
74552;BME280;63025;55.472;38.432;2024-03-23T12:43:17;98687.50;;;5.51;100.00
74552;BME280;63025;55.472;38.432;2024-03-23T12:45:47;98684.25;;;5.49;100.00
74552;BME280;63025;55.472;38.432;2024-03-23T12:48:13;98698.16;;;5.51;100.00
74552;BME280;63025;55.472;38.432;2024-03-23T12:50:38;98696.13;;;5.47;100.00
74552;BME280;63025;55.472;38.432;2024-03-23T12:53:04;98691.22;;;5.44;100.00
74552;BME280;63025;55.472;38.432;2024-03-23T12:55:30;98695.50;;;5.45;100.00
74552;BME280;63025;55.472;38.432;2024-03-23T12:57:56;98689.56;;;5.49;100.00
74552;BME280;63025;55.472;38.432;2024-03-23T13:00:23;98691.41;;;5.49;100.00
74552;BME280;63025;55.472;38.432;2024-03-23T13:02:48;98683.88;;;5.33;100.00
74552;BME280;63025;55.472;38.432;2024-03-23T13:05:29;98686.94;;;5.30;100.00
74552;BME280;63025;55.472;38.432;2024-03-23T13:07:55;98690.63;;;5.35;100.00
74552;BME280;63025;55.472;38.432;2024-03-23T13:10:22;98685.09;;;5.30;100.00
74552;BME280;63025;55.472;38.432;2024-03-23T13:12:48;98686.56;;;5.26;100.00
74552;BME280;63025;55.472;38.432;2024-03-23T13:15:13;98689.00;;;5.28;100.00
74552;BME280;63025;55.472;38.432;2024-03-23T13:17:42;98693.91;;;5.31;100.00
74552;BME280;63025;55.472;38.432;2024-03-23T13:20:08;98679.38;;;5.27;100.00
74552;BME280;63025;55.472;38.432;2024-03-23T13:22:38;98689.03;;;5.14;100.00
74552;BME280;63025;55.472;38.432;2024-03-23T13:25:05;98684.53;;;5.15;100.00
74552;BME280;63025;55.472;38.432;2024-03-23T13:27:31;98685.75;;;5.12;100.00
74552;BME280;63025;55.472;38.432;2024-03-23T13:29:57;98682.03;;;5.20;100.00
74552;BME280;63025;55.472;38.432;2024-03-23T13:32:23;98680.63;;;5.18;100.00
74552;BME280;63025;55.472;38.432;2024-03-23T13:34:49;98678.56;;;5.20;100.00
74552;BME280;63025;55.472;38.432;2024-03-23T13:37:16;98686.13;;;5.23;100.00
74552;BME280;63025;55.472;38.432;2024-03-23T13:39:42;98681.47;;;5.18;100.00
74552;BME280;63025;55.472;38.432;2024-03-23T13:42:07;98673.25;;;5.13;100.00
74552;BME280;63025;55.472;38.432;2024-03-23T13:44:34;98678.78;;;5.18;100.00
74552;BME280;63025;55.472;38.432;2024-03-23T13:47:00;98680.03;;;5.15;100.00
74552;BME280;63025;55.472;38.432;2024-03-23T13:49:30;98673.88;;;5.15;100.00
74552;BME280;63025;55.472;38.432;2024-03-23T13:51:58;98677.16;;;5.10;100.00
74552;BME280;63025;55.472;38.432;2024-03-23T13:54:25;98675.50;;;5.09;100.00
74552;BME280;63025;55.472;38.432;2024-03-23T13:56:52;98679.59;;;5.12;100.00
74552;BME280;63025;55.472;38.432;2024-03-23T13:59:18;98678.38;;;5.14;100.00
74552;BME280;63025;55.472;38.432;2024-03-23T14:01:45;98677.34;;;5.09;100.00